createdAt,value
2023-11-23T00:01:56.491Z,62.31
2023-11-23T00:04:58.515Z,62.23
2023-11-23T00:08:01.886Z,62.22
2023-11-23T00:11:06.942Z,62.23
2023-11-23T00:14:09.356Z,62.26
2023-11-23T00:17:16.308Z,62.32
2023-11-23T00:20:18.830Z,62.34
2023-11-23T00:23:20.846Z,62.31
2023-11-23T00:26:25.053Z,62.41
2023-11-23T00:29:33.423Z,62.46
2023-11-23T00:32:35.693Z,62.50
2023-11-23T00:35:38.459Z,62.52
2023-11-23T00:38:44.099Z,62.54
2023-11-23T00:41:46.373Z,62.56
2023-11-23T00:44:48.986Z,62.61
2023-11-23T00:47:51.051Z,62.69
2023-11-23T00:50:53.537Z,62.67
2023-11-23T00:53:57.006Z,62.73
2023-11-23T00:56:59.301Z,62.74
2023-11-23T01:00:01.589Z,62.84
2023-11-23T01:03:04.408Z,62.85
2023-11-23T01:06:07.247Z,62.87
2023-11-23T01:09:11.386Z,62.93
2023-11-23T01:12:13.400Z,62.95
2023-11-23T01:15:16.100Z,62.98
2023-11-23T01:18:18.215Z,63.00
2023-11-23T01:21:20.558Z,62.95
2023-11-23T01:24:22.510Z,63.06
2023-11-23T01:27:24.818Z,63.11
2023-11-23T01:30:26.816Z,63.13
2023-11-23T01:33:29.211Z,63.15
2023-11-23T01:36:31.228Z,63.12
2023-11-23T01:39:33.529Z,63.21
2023-11-23T01:42:35.948Z,63.23
2023-11-23T01:45:39.202Z,63.29
2023-11-23T01:48:43.697Z,63.33
2023-11-23T01:51:46.012Z,63.35
2023-11-23T01:54:48.157Z,63.40
2023-11-23T01:57:54.102Z,63.43
2023-11-23T02:00:56.443Z,63.47
2023-11-23T02:03:59.502Z,63.47
2023-11-23T02:07:01.955Z,63.48
2023-11-23T02:10:08.051Z,63.50
2023-11-23T02:13:10.048Z,63.48
2023-11-23T02:16:12.548Z,63.49
2023-11-23T02:19:15.200Z,63.48
2023-11-23T02:22:17.869Z,63.57
2023-11-23T02:25:19.975Z,63.57
2023-11-23T02:28:22.219Z,63.59
2023-11-23T02:31:24.266Z,63.55
2023-11-23T02:34:26.646Z,63.64
2023-11-23T02:37:28.893Z,63.58
2023-11-23T02:40:31.136Z,63.58
2023-11-23T02:43:33.146Z,63.63
2023-11-23T02:46:35.384Z,63.62
2023-11-23T02:49:37.353Z,63.59
2023-11-23T02:52:40.297Z,63.69
2023-11-23T02:55:44.898Z,63.64
2023-11-23T02:58:48.168Z,63.64
2023-11-23T03:01:51.282Z,63.70
2023-11-23T03:04:55.389Z,63.65
2023-11-23T03:07:57.482Z,63.62
2023-11-23T03:11:01.252Z,63.79
2023-11-23T03:14:05.204Z,63.66
2023-11-23T03:17:09.103Z,63.68
2023-11-23T03:20:11.954Z,63.68
2023-11-23T03:23:14.345Z,63.73
2023-11-23T03:26:16.889Z,63.65
2023-11-23T03:29:19.269Z,63.67
2023-11-23T03:32:22.057Z,63.71
2023-11-23T03:35:25.614Z,63.73
2023-11-23T03:38:27.600Z,63.75
2023-11-23T03:41:29.863Z,63.74
2023-11-23T03:44:31.866Z,63.71
2023-11-23T03:47:34.186Z,63.70
2023-11-23T03:50:36.582Z,63.72
2023-11-23T03:53:39.024Z,63.69
2023-11-23T03:56:41.510Z,63.73
2023-11-23T03:59:43.810Z,63.72
2023-11-23T04:02:47.423Z,63.73
2023-11-23T04:05:50.110Z,63.75
2023-11-23T04:08:52.157Z,63.68
2023-11-23T04:11:54.557Z,63.73
2023-11-23T04:14:57.315Z,63.73
2023-11-23T04:17:59.713Z,63.80
2023-11-23T04:21:02.125Z,63.77
2023-11-23T04:24:04.757Z,63.76
2023-11-23T04:27:06.905Z,63.77
2023-11-23T04:30:10.193Z,63.76
2023-11-23T04:33:12.511Z,63.73
2023-11-23T04:36:14.879Z,63.76
2023-11-23T04:39:16.978Z,63.74
2023-11-23T04:42:19.807Z,63.74
2023-11-23T04:45:22.218Z,63.79
2023-11-23T04:48:24.842Z,63.84
2023-11-23T04:51:26.904Z,63.81
2023-11-23T04:54:29.303Z,63.84
2023-11-23T04:57:31.309Z,63.81
2023-11-23T05:00:37.220Z,63.82
2023-11-23T05:03:39.454Z,63.81
2023-11-23T05:06:42.113Z,63.89
2023-11-23T05:09:44.137Z,63.90
2023-11-23T05:12:46.414Z,63.99
2023-11-23T05:15:48.386Z,63.96
2023-11-23T05:18:50.697Z,63.94
2023-11-23T05:21:52.677Z,63.98
2023-11-23T05:24:55.044Z,63.94
2023-11-23T05:27:57.112Z,64.10
2023-11-23T05:30:59.403Z,63.97
2023-11-23T05:34:01.579Z,63.95
2023-11-23T05:37:04.802Z,63.90
2023-11-23T05:40:10.385Z,63.85
2023-11-23T05:43:15.059Z,63.79
2023-11-23T05:46:17.239Z,63.71
2023-11-23T05:49:22.955Z,63.66
2023-11-23T05:52:25.206Z,63.71
2023-11-23T05:55:27.476Z,63.67
2023-11-23T05:58:29.467Z,63.64
2023-11-23T06:01:35.569Z,63.69
2023-11-23T06:04:37.948Z,63.69
2023-11-23T06:07:40.466Z,63.66
2023-11-23T06:10:44.085Z,63.60
2023-11-23T06:13:49.334Z,63.52
2023-11-23T06:16:54.254Z,63.66
2023-11-23T06:19:57.926Z,63.74
2023-11-23T06:23:01.185Z,63.76
2023-11-23T06:26:03.803Z,63.73
2023-11-23T06:29:06.272Z,63.74
2023-11-23T06:32:09.094Z,63.81
2023-11-23T06:35:11.359Z,63.97
2023-11-23T06:38:13.659Z,63.98
2023-11-23T06:41:22.593Z,63.90
2023-11-23T06:44:26.383Z,63.86
2023-11-23T06:47:33.805Z,63.82
2023-11-23T06:50:36.227Z,64.04
2023-11-23T06:53:46.339Z,64.29
2023-11-23T06:56:48.741Z,64.05
2023-11-23T06:59:50.829Z,64.23
2023-11-23T07:02:56.895Z,64.46
2023-11-23T07:05:59.229Z,64.99
2023-11-23T07:09:01.927Z,64.96
2023-11-23T07:12:04.524Z,65.03
2023-11-23T07:15:07.621Z,64.48
2023-11-23T07:18:09.942Z,64.39
2023-11-23T07:21:12.391Z,64.35
2023-11-23T07:24:14.560Z,64.44
2023-11-23T07:27:17.597Z,64.41
2023-11-23T07:30:19.873Z,64.30
2023-11-23T07:33:24.416Z,64.30
2023-11-23T07:36:27.806Z,64.23
2023-11-23T07:39:30.208Z,64.30
2023-11-23T07:42:32.452Z,64.24
2023-11-23T07:45:35.020Z,64.22
2023-11-23T07:48:37.140Z,64.32
2023-11-23T07:51:42.263Z,64.30
2023-11-23T07:54:45.337Z,64.27
2023-11-23T07:57:50.735Z,64.37
2023-11-23T08:00:53.102Z,64.23
2023-11-23T08:03:55.533Z,64.26
2023-11-23T08:06:57.587Z,64.39
2023-11-23T08:09:59.913Z,64.32
2023-11-23T08:13:01.998Z,64.65
2023-11-23T08:16:05.557Z,64.58
2023-11-23T08:19:08.998Z,64.39
2023-11-23T08:22:14.059Z,64.50
2023-11-23T08:25:16.137Z,64.43
2023-11-23T08:28:18.581Z,64.33
2023-11-23T08:31:23.329Z,64.44
2023-11-23T08:34:28.506Z,64.47
2023-11-23T08:37:30.766Z,64.36
2023-11-23T08:40:33.129Z,64.21
2023-11-23T08:43:38.444Z,64.18
2023-11-23T08:46:42.981Z,64.13
2023-11-23T08:49:45.157Z,64.06
2023-11-23T08:52:47.541Z,63.95
2023-11-23T08:55:51.379Z,64.14
2023-11-23T08:58:53.754Z,64.22
2023-11-23T09:02:02.022Z,64.06
2023-11-23T09:05:10.827Z,63.87
2023-11-23T09:08:13.171Z,63.92
2023-11-23T09:11:16.676Z,64.03
2023-11-23T09:14:18.917Z,63.96
2023-11-23T09:17:21.294Z,64.10
2023-11-23T09:20:24.225Z,64.05
2023-11-23T09:23:28.775Z,64.17
2023-11-23T09:26:33.472Z,64.17
2023-11-23T09:29:36.438Z,64.02
2023-11-23T09:32:39.502Z,64.10
2023-11-23T09:35:43.562Z,64.17
2023-11-23T09:38:45.643Z,64.30
2023-11-23T09:41:48.774Z,64.24
2023-11-23T09:44:57.811Z,64.21
2023-11-23T09:48:01.402Z,64.21
2023-11-23T09:51:15.466Z,64.14
2023-11-23T09:54:22.985Z,64.05
2023-11-23T09:57:25.428Z,64.46
2023-11-23T10:00:28.137Z,64.31
2023-11-23T10:03:35.986Z,64.08
2023-11-23T10:06:38.535Z,64.08
2023-11-23T10:09:42.248Z,64.10
2023-11-23T10:12:48.727Z,63.87
2023-11-23T10:15:56.002Z,63.75
2023-11-23T10:18:58.780Z,63.89
2023-11-23T10:22:01.452Z,63.76
2023-11-23T10:25:04.362Z,63.73
2023-11-23T10:28:06.591Z,63.53
2023-11-23T10:31:12.236Z,63.43
2023-11-23T10:34:17.229Z,63.44
2023-11-23T10:37:24.988Z,63.54
2023-11-23T10:40:34.482Z,63.53
2023-11-23T10:43:38.041Z,63.36
2023-11-23T10:46:40.454Z,63.20
2023-11-23T10:49:48.393Z,63.36
2023-11-23T10:52:52.605Z,63.27
2023-11-23T10:55:55.952Z,63.35
2023-11-23T10:59:09.859Z,63.45
2023-11-23T11:02:14.538Z,63.50
2023-11-23T11:05:28.288Z,63.43
2023-11-23T11:08:31.425Z,63.33
2023-11-23T11:11:36.033Z,63.37
2023-11-23T11:14:41.066Z,63.30
2023-11-23T11:17:44.958Z,63.72
2023-11-23T11:21:10.544Z,63.42
2023-11-23T11:24:23.248Z,63.11
2023-11-23T11:27:29.894Z,63.42
2023-11-23T11:30:35.519Z,63.36
2023-11-23T11:33:41.584Z,63.36
2023-11-23T11:36:44.901Z,63.71
2023-11-23T11:39:47.701Z,63.86
2023-11-23T11:42:49.982Z,63.78
2023-11-23T11:45:54.899Z,63.87
2023-11-23T11:49:00.349Z,63.42
2023-11-23T11:52:03.040Z,63.44
2023-11-23T11:55:06.714Z,63.33
2023-11-23T11:58:09.262Z,63.23
2023-11-23T12:01:11.489Z,63.25
2023-11-23T12:04:16.730Z,63.22
2023-11-23T12:07:19.843Z,63.25
2023-11-23T12:10:22.678Z,63.25
2023-11-23T12:13:26.251Z,63.20
2023-11-23T12:16:39.773Z,63.19
2023-11-23T12:23:15.553Z,63.28
2023-11-23T12:26:17.696Z,63.20
2023-11-23T12:29:30.495Z,63.38
2023-11-23T12:32:32.676Z,63.20
2023-11-23T12:35:35.124Z,63.08
2023-11-23T12:38:37.252Z,62.94
2023-11-23T12:41:46.602Z,63.01
2023-11-23T12:45:11.811Z,63.08
2023-11-23T12:48:19.610Z,63.06
2023-11-23T12:51:24.236Z,63.19
2023-11-23T12:54:35.106Z,62.99
2023-11-23T12:57:42.934Z,63.74
2023-11-23T13:00:48.441Z,63.29
2023-11-23T13:03:54.681Z,63.17
2023-11-23T13:07:07.412Z,63.17
2023-11-23T13:10:14.395Z,63.27
2023-11-23T13:13:20.754Z,63.17
2023-11-23T13:16:25.039Z,63.19
2023-11-23T13:19:44.004Z,63.34
2023-11-23T13:22:46.684Z,63.94
2023-11-23T13:25:51.834Z,63.67
2023-11-23T13:28:58.698Z,63.89
2023-11-23T13:32:07.394Z,63.57
2023-11-23T13:35:09.871Z,64.00
2023-11-23T13:38:13.372Z,63.52
2023-11-23T13:41:22.573Z,63.21
2023-11-23T13:44:27.103Z,63.11
2023-11-23T13:47:29.838Z,63.25
2023-11-23T13:50:32.012Z,62.85
2023-11-23T13:53:40.366Z,63.81
2023-11-23T13:56:45.567Z,63.50
2023-11-23T13:59:49.481Z,63.88
2023-11-23T14:02:53.874Z,63.25
2023-11-23T14:06:01.261Z,63.16
2023-11-23T14:09:05.013Z,63.15
2023-11-23T14:12:16.232Z,63.06
2023-11-23T14:15:20.780Z,63.38
2023-11-23T14:18:26.394Z,62.90
2023-11-23T14:21:49.739Z,63.23
2023-11-23T14:24:55.232Z,63.26
2023-11-23T14:28:02.553Z,63.38
2023-11-23T14:31:05.812Z,63.25
2023-11-23T14:34:12.412Z,63.11
2023-11-23T14:37:22.430Z,63.44
2023-11-23T14:40:27.068Z,63.32
2023-11-23T14:43:34.563Z,63.35
2023-11-23T14:46:37.812Z,63.71
2023-11-23T14:49:40.630Z,63.40
2023-11-23T14:52:43.544Z,63.34
2023-11-23T14:55:46.892Z,63.26
2023-11-23T14:58:54.548Z,63.37
2023-11-23T15:02:10.884Z,63.28
2023-11-23T15:05:18.613Z,63.73
2023-11-23T15:08:26.289Z,63.24
2023-11-23T15:11:30.227Z,64.07
2023-11-23T15:14:32.893Z,63.84
2023-11-23T15:17:51.578Z,63.50
2023-11-23T15:21:00.655Z,63.78
2023-11-23T15:24:12.913Z,63.65
2023-11-23T15:27:30.006Z,63.91
2023-11-23T15:30:33.799Z,64.20
2023-11-23T15:33:36.525Z,64.23
2023-11-23T15:36:41.530Z,64.16
2023-11-23T15:39:52.047Z,64.15
2023-11-23T15:43:03.813Z,63.99
2023-11-23T15:46:20.233Z,63.84
2023-11-23T15:49:27.204Z,64.18
2023-11-23T15:52:37.139Z,64.20
2023-11-23T15:55:44.141Z,63.69
2023-11-23T15:58:58.079Z,63.60
2023-11-23T16:02:12.389Z,63.44
2023-11-23T16:05:40.811Z,63.60
2023-11-23T16:08:44.533Z,63.24
2023-11-23T16:11:53.806Z,62.98
2023-11-23T16:14:59.562Z,62.50
2023-11-23T16:18:04.303Z,62.68
2023-11-23T16:21:16.476Z,62.41
2023-11-23T16:24:27.365Z,62.43
2023-11-23T16:27:34.765Z,62.74
2023-11-23T16:30:41.342Z,62.15
2023-11-23T16:33:51.893Z,63.48
2023-11-23T16:37:14.111Z,62.73
2023-11-23T16:40:36.054Z,62.44
2023-11-23T16:47:36.398Z,62.38
2023-11-23T16:50:43.507Z,63.71
2023-11-23T16:54:41.045Z,63.54
2023-11-23T16:57:52.680Z,64.43
2023-11-23T17:01:07.425Z,63.50
2023-11-23T17:16:03.035Z,65.38
2023-11-23T17:22:32.069Z,63.92
2023-11-23T17:25:44.834Z,67.63
2023-11-23T17:28:50.805Z,68.96
2023-11-23T17:32:01.048Z,69.77
2023-11-23T17:35:21.060Z,69.28
2023-11-23T17:38:35.944Z,66.20
2023-11-23T17:42:15.138Z,67.78
2023-11-23T17:49:18.329Z,70.63
2023-11-23T18:22:42.363Z,67.99
2023-11-23T18:26:08.908Z,71.08
2023-11-23T18:29:23.532Z,68.92
2023-11-23T18:32:53.628Z,71.89
2023-11-23T18:36:11.190Z,72.55
2023-11-23T18:39:17.692Z,74.59
2023-11-23T18:42:27.735Z,76.53
2023-11-23T18:45:34.481Z,76.25
2023-11-23T18:48:41.591Z,73.92
2023-11-23T18:56:00.702Z,77.46
2023-11-23T18:59:03.964Z,77.52
2023-11-23T19:02:07.034Z,76.98
2023-11-23T19:05:28.508Z,76.86
2023-11-23T19:08:45.102Z,77.73
2023-11-23T19:11:58.180Z,77.08
2023-11-23T19:15:04.808Z,78.39
2023-11-23T19:18:16.709Z,79.52
2023-11-23T19:21:19.667Z,80.27
2023-11-23T19:24:24.992Z,79.36
2023-11-23T19:27:27.931Z,83.08
2023-11-23T19:30:33.194Z,86.37
2023-11-23T19:33:36.188Z,87.95
2023-11-23T19:36:42.573Z,88.04
2023-11-23T19:39:46.115Z,87.47
2023-11-23T19:42:48.707Z,87.19
2023-11-23T19:45:54.500Z,87.32
2023-11-23T19:48:57.208Z,87.48
2023-11-23T19:52:18.029Z,86.76
2023-11-23T19:55:34.124Z,85.82
2023-11-23T20:02:28.059Z,84.35
2023-11-23T20:09:36.332Z,83.80
2023-11-23T20:12:49.686Z,83.63
2023-11-23T20:16:00.248Z,83.43
2023-11-23T20:19:06.515Z,82.05
2023-11-23T20:22:11.447Z,81.26
2023-11-23T20:25:18.124Z,81.15
2023-11-23T20:28:29.432Z,80.16
2023-11-23T20:32:30.336Z,78.66
2023-11-23T20:35:57.205Z,77.53
2023-11-23T20:39:17.442Z,76.60
2023-11-23T20:42:58.993Z,75.99
2023-11-23T20:46:08.596Z,75.36
2023-11-23T20:49:13.402Z,75.45
2023-11-23T20:52:17.155Z,74.85
2023-11-23T20:55:20.819Z,74.03
2023-11-23T20:58:23.633Z,73.78
2023-11-23T21:01:27.240Z,73.35
2023-11-23T21:04:36.019Z,71.81
2023-11-23T21:07:44.209Z,71.40
2023-11-23T21:11:20.655Z,70.87
2023-11-23T21:14:24.620Z,71.49
2023-11-23T21:17:31.715Z,70.84
2023-11-23T21:20:34.216Z,70.70
2023-11-23T21:23:39.315Z,70.98
2023-11-23T21:26:41.719Z,71.43
2023-11-23T21:29:44.095Z,71.39
2023-11-23T21:32:46.243Z,71.13
2023-11-23T21:35:49.187Z,70.66
2023-11-23T21:38:52.898Z,71.39
2023-11-23T21:41:55.417Z,71.73
2023-11-23T21:44:57.794Z,71.98
2023-11-23T21:48:00.367Z,71.81
2023-11-23T21:51:03.075Z,70.81
2023-11-23T21:54:07.954Z,71.03
2023-11-23T21:57:12.728Z,71.11
2023-11-23T22:00:18.308Z,71.95
2023-11-23T22:03:22.257Z,71.44
2023-11-23T22:06:27.283Z,70.64
2023-11-23T22:09:31.472Z,70.23
2023-11-23T22:12:34.664Z,70.03
2023-11-23T22:15:41.654Z,69.50
2023-11-23T22:18:49.060Z,70.12
2023-11-23T22:22:02.045Z,70.88
2023-11-23T22:25:05.992Z,71.84
2023-11-23T22:28:15.507Z,73.82
2023-11-23T22:31:23.023Z,77.18
2023-11-23T22:34:27.095Z,79.09
2023-11-23T22:37:31.418Z,80.00
2023-11-23T22:40:36.622Z,80.17
2023-11-23T22:43:42.501Z,80.42
2023-11-23T22:46:45.024Z,80.71
2023-11-23T22:49:51.944Z,80.67
2023-11-23T22:52:54.590Z,80.87
2023-11-23T22:55:58.118Z,81.11
2023-11-23T22:59:00.289Z,81.62
2023-11-23T23:02:03.730Z,82.08
2023-11-23T23:05:07.564Z,82.14
2023-11-23T23:08:09.986Z,81.72
2023-11-23T23:11:12.006Z,81.45
2023-11-23T23:14:14.709Z,81.10
2023-11-23T23:17:16.829Z,80.84
2023-11-23T23:20:19.691Z,80.93
2023-11-23T23:23:21.792Z,80.45
2023-11-23T23:26:26.206Z,80.25
2023-11-23T23:29:28.451Z,80.10
2023-11-23T23:32:31.057Z,79.89
2023-11-23T23:35:33.306Z,80.94
2023-11-23T23:38:35.621Z,79.51
2023-11-23T23:41:38.821Z,78.81
2023-11-23T23:44:41.219Z,78.57
2023-11-23T23:47:46.237Z,78.42
2023-11-23T23:50:50.961Z,78.28
2023-11-23T23:53:54.985Z,77.71
2023-11-23T23:56:58.883Z,77.44
